Metairie, LA (70009)

11:48 PM CDT on May 29, 2015 (GMT -0500)
Cleary Farms | | Change Station
CLOSE
Current Station
Personal Weather Station
Location: Metairie, LA
Elevation: 0 ft
Nearby Weather Stations

Elev 0 ft 30.02 °N, 90.17 °W | Updated 1 second ago

Mostly Cloudy
Mostly Cloudy
79.9 °F
Feels Like 85 °F
N
0.0
Wind Variable Wind from SSE
Gusts 0.0 mph

Today
High -- | Low -- °F
--% Chance of Precip.
Yesterday
High -- | Low -- °F
Precip. -- in
6:00 AM 7:55 PM
Waxing Gibbous, 88% visible
Pressure 30.05 in
Visibility 10.0 miles
Clouds Few 800 ft
Mostly Cloudy 25000 ft
Heat Index 85 °F
Dew Point 75 °F
Humidity 84%
Rainfall 0.00 in
Snow Depth Not available.
UV 15.7 out of 12
Pollen 4.10 out of 12
Air Quality Not available.
Flu Activity Sporadic
SPECI KMSY 300428Z 13006KT 10SM FEW008 BKN250 25/21 A3005 RMK AO2 T02500206

More Conditions Fewer Conditions

Pressure 30.05 in
Visibility 10.0 miles
Clouds Few 800 ft
Mostly Cloudy 25000 ft
Heat Index 85 °F
Dew Point 75 °F
Humidity 84%
Rainfall 0.00 in
Snow Depth Not available.
UV 15.7 out of 12
Pollen 4.10 out of 12
Air Quality Not available.
Flu Activity Sporadic
SPECI KMSY 300428Z 13006KT 10SM FEW008 BKN250 25/21 A3005 RMK AO2 T02500206

More Conditions Fewer Conditions

10-Day Weather Forecast

Almanac

Astronomy

May. 29, 2015 Rise Set
Actual Time
Civil Twilight
Nautical Twilight
Astronomical Twilight
Moon
Length of Visible Light
Length of Day
Tomorrow will be .
, % of the Moon is Illuminated

Today's Extremes

State Highs State Lows

Community

WunderPhotos

Upload Photos

1,825,455 photos uploaded!

WunderBlogs® & News

Nearby

Air Quality

  Air Quality AQ Index Pollutant
Not available.

Snow Depth

Station Depth Elevation

Earthquake Activity

City Distance Mag. Time & Date
Minimum magnitude displayed is 2.5.

Coastal Water Temperatures

Place Temperature

Stations

Nearby Weather Stations

Station Location Temp. Windchill Dew Point Humidity Wind Precip. Elev Updated Type